Other Surface Observations
Issued by NWS Missoula, MT

Home | Current Version | Previous Version | Text Only | Print | Product List | Glossary On
Versions: 1 2 3 4 5 6 7 8 9 10 11 12 13 14 15 16 17 18 19 20 21 22 23 24 25 26 27 28 29 30 31 32 33 34 35 36 37 38 39 40 41 42 43 44 45 46 47 48 49 50
119
SXUS55 KMSO 282224
OSOMSO
MONTANA AWOS SUMMARY
NATIONAL WEATHER SERVICE MISSOULA MT
423 PM MDT SUN MAY 28 2017

Montana AWOS Reports

LAUREL      |K6S8 282215Z AUTO 34009G16KT 40SM 23/04 A3015 RMK AO1 T02330039
ROUNDUP     |KRPX 282215Z AUTO 34011G16KT 40SM 18/06 A3010 RMK AO1 T01830056




USA.gov is the U.S. government's official web portal to all federal, state and local government web resources and services.